Time;durP1;ratioP1;P1;durP2;ratioP2;P2;SDS_P1;SDS_P2;PMS_P1;PMS_P2;Temp;Humidity;BMP_temperature;BMP_pressure;BME280_temperature;BME280_humidity;BME280_pressure;Samples;Min_cycle;Max_cycle;Signal;HPM_P1;HPM_P2
2023/03/13 00:01:22;;;;;;;;;;;13.30;99.90;;;;;;6211211;23;19934;-84
2023/03/13 00:03:47;;;;;;;;;;;13.30;99.90;;;;;;6211318;23;20328;-84
2023/03/13 00:06:13;;;;;;;;;;;13.40;99.90;;;;;;6211218;23;19946;-85
2023/03/13 00:08:38;;;;;;;;;;;13.40;99.90;;;;;;6210779;23;20233;-85
2023/03/13 00:11:06;;;;;;;;;;;13.40;99.90;;;;;;6210910;23;19908;-86
2023/03/13 00:13:31;;;;;;;;;;;13.40;99.90;;;;;;6210904;23;19970;-84
2023/03/13 00:16:03;;;;;;;;;;;13.40;99.90;;;;;;6212209;23;20386;-84
2023/03/13 00:18:29;;;;;;;;;;;13.40;99.90;;;;;;6212277;23;19946;-82
2023/03/13 00:20:58;;;;;;;;;;;13.30;99.90;;;;;;6210713;23;19908;-85
2023/03/13 00:23:24;;;;;;;;;;;13.40;99.90;;;;;;6210960;23;19954;-84
2023/03/13 00:25:55;;;;;;;;;;;13.40;99.90;;;;;;6211021;23;19904;-84
2023/03/13 00:28:20;;;;;;;;;;;13.40;99.90;;;;;;6210859;23;19907;-85
2023/03/13 00:30:45;;;;;;;;;;;13.50;99.90;;;;;;6210707;23;19900;-84
2023/03/13 00:33:11;;;;;;;;;;;13.50;99.90;;;;;;6210764;23;19951;-84
2023/03/13 00:35:36;;;;;;;;;;;13.50;99.90;;;;;;6210904;23;19900;-82
2023/03/13 00:38:02;;;;;;;;;;;13.50;99.90;;;;;;6211087;23;19900;-83
2023/03/13 00:40:27;;;;;;;;;;;13.60;99.90;;;;;;6211599;23;19911;-82
2023/03/13 00:42:53;;;;;;;;;;;13.60;99.90;;;;;;6210864;23;19979;-81
2023/03/13 00:45:18;;;;;;;;;;;13.60;99.90;;;;;;6210948;23;19907;-82
2023/03/13 00:47:44;;;;;;;;;;;13.60;99.90;;;;;;6211597;23;19899;-84
2023/03/13 00:50:09;;;;;;;;;;;13.60;99.90;;;;;;6211544;23;19919;-83
2023/03/13 00:52:35;;;;;;;;;;;13.60;99.90;;;;;;6211311;23;19919;-82
2023/03/13 00:55:00;;;;;;;;;;;13.60;99.90;;;;;;6211773;23;19987;-83
2023/03/13 00:57:26;;;;;;;;;;;13.60;99.90;;;;;;6210644;23;20324;-83
2023/03/13 00:59:51;;;;;;;;;;;13.70;99.90;;;;;;6210906;23;19959;-83
2023/03/13 01:02:18;;;;;;;;;;;13.70;99.90;;;;;;6210692;23;19903;-83
2023/03/13 01:04:44;;;;;;;;;;;13.60;99.90;;;;;;6210660;23;19907;-82
2023/03/13 01:07:09;;;;;;;;;;;13.60;99.90;;;;;;6210745;23;19903;-83
2023/03/13 01:09:35;;;;;;;;;;;13.70;99.90;;;;;;6210998;23;19900;-82
2023/03/13 01:12:00;;;;;;;;;;;13.70;99.90;;;;;;6211490;23;19903;-84
2023/03/13 01:14:26;;;;;;;;;;;13.70;99.90;;;;;;6210686;23;20337;-82
2023/03/13 01:16:51;;;;;;;;;;;13.70;99.90;;;;;;6210932;23;19975;-81
2023/03/13 01:19:18;;;;;;;;;;;13.70;99.90;;;;;;6210721;23;19904;-82
2023/03/13 01:21:45;;;;;;;;;;;13.70;99.90;;;;;;6210763;23;20348;-81
2023/03/13 01:24:10;;;;;;;;;;;13.70;99.90;;;;;;6212740;23;19979;-81
2023/03/13 01:26:36;;;;;;;;;;;13.70;99.90;;;;;;6212736;23;19939;-82
2023/03/13 01:29:01;;;;;;;;;;;13.70;99.90;;;;;;6213729;23;19953;-81
2023/03/13 01:31:33;;;;;;;;;;;13.70;99.90;;;;;;6212468;23;19900;-85
2023/03/13 01:33:59;;;;;;;;;;;13.80;99.90;;;;;;6212457;23;19957;-84
2023/03/13 01:36:25;;;;;;;;;;;13.80;99.90;;;;;;6212522;23;20136;-83
2023/03/13 01:38:52;;;;;;;;;;;13.80;99.90;;;;;;6212568;23;19900;-80
2023/03/13 01:41:18;;;;;;;;;;;13.70;99.90;;;;;;6212016;23;19907;-81
2023/03/13 01:43:44;;;;;;;;;;;13.70;99.90;;;;;;6212537;23;19946;-82
2023/03/13 01:46:09;;;;;;;;;;;13.70;99.90;;;;;;6212369;23;19904;-81
2023/03/13 01:48:41;;;;;;;;;;;13.80;99.90;;;;;;6213460;23;19911;-82
2023/03/13 01:51:28;;;;;;;;;;;13.80;99.90;;;;;;6212143;23;19907;-81
2023/03/13 01:54:04;;;;;;;;;;;13.80;99.90;;;;;;6212643;23;19908;-81
2023/03/13 01:56:36;;;;;;;;;;;13.90;99.90;;;;;;6212174;23;19946;-82
2023/03/13 01:59:04;;;;;;;;;;;13.90;99.90;;;;;;6213658;23;19900;-83
2023/03/13 02:01:30;;;;;;;;;;;13.90;99.90;;;;;;6212326;23;19900;-83
2023/03/13 02:03:56;;;;;;;;;;;13.90;99.90;;;;;;6212243;23;19906;-80
2023/03/13 02:06:22;;;;;;;;;;;13.90;99.90;;;;;;6212562;23;19900;-82
2023/03/13 02:08:53;;;;;;;;;;;13.90;99.90;;;;;;6212158;23;19903;-81
2023/03/13 02:11:26;;;;;;;;;;;13.90;99.90;;;;;;6212465;23;19904;-82
2023/03/13 02:13:52;;;;;;;;;;;13.90;99.90;;;;;;6212263;23;19986;-82
2023/03/13 02:16:18;;;;;;;;;;;13.90;99.90;;;;;;6211931;23;20407;-82
2023/03/13 02:18:44;;;;;;;;;;;13.90;99.90;;;;;;6211766;23;19899;-82
2023/03/13 02:21:13;;;;;;;;;;;13.80;99.90;;;;;;6212384;23;19908;-81
2023/03/13 02:23:43;;;;;;;;;;;13.80;99.90;;;;;;6212046;23;19903;-80
2023/03/13 02:26:09;;;;;;;;;;;13.80;99.90;;;;;;6212842;23;19899;-80
2023/03/13 02:28:38;;;;;;;;;;;13.90;99.90;;;;;;6213231;23;20351;-83
2023/03/13 02:31:04;;;;;;;;;;;13.80;99.90;;;;;;6212285;23;19900;-83
2023/03/13 02:33:31;;;;;;;;;;;13.80;99.90;;;;;;6211989;23;19918;-81
2023/03/13 02:35:58;;;;;;;;;;;13.80;99.90;;;;;;6212075;23;20222;-80
2023/03/13 02:38:25;;;;;;;;;;;13.90;99.90;;;;;;6211901;23;19907;-81
2023/03/13 02:40:52;;;;;;;;;;;13.80;99.90;;;;;;6211976;23;19923;-81
2023/03/13 02:43:22;;;;;;;;;;;13.80;99.90;;;;;;6212021;23;20339;-81
2023/03/13 02:46:10;;;;;;;;;;;13.70;99.90;;;;;;6211375;23;19907;-82
2023/03/13 02:48:38;;;;;;;;;;;13.60;99.90;;;;;;6193360;23;19931;-80
2023/03/13 02:51:05;;;;;;;;;;;13.50;99.90;;;;;;6211960;23;19914;-80
2023/03/13 02:53:31;;;;;;;;;;;13.40;99.90;;;;;;6211325;23;20329;-80
2023/03/13 02:55:57;;;;;;;;;;;13.40;99.90;;;;;;6212061;23;19900;-79
2023/03/13 02:58:24;;;;;;;;;;;13.30;99.90;;;;;;6211166;23;20221;-81
2023/03/13 03:00:50;;;;;;;;;;;13.20;99.90;;;;;;6211974;23;19900;-81
2023/03/13 03:03:15;;;;;;;;;;;13.20;99.90;;;;;;6211716;23;19904;-81
2023/03/13 03:05:41;;;;;;;;;;;13.10;99.90;;;;;;6211658;23;19907;-81
2023/03/13 03:08:06;;;;;;;;;;;13.10;99.90;;;;;;6212696;23;19900;-80
2023/03/13 03:10:34;;;;;;;;;;;13.00;99.90;;;;;;6211675;23;19975;-80
2023/03/13 03:12:59;;;;;;;;;;;13.00;99.90;;;;;;6184444;23;19939;-81
2023/03/13 03:15:26;;;;;;;;;;;13.00;99.90;;;;;;6211900;23;19922;-82
2023/03/13 03:17:51;;;;;;;;;;;13.00;99.90;;;;;;6211852;23;20037;-80
2023/03/13 03:20:17;;;;;;;;;;;13.00;99.90;;;;;;6211249;23;19912;-82
2023/03/13 03:22:42;;;;;;;;;;;12.90;99.90;;;;;;6211662;23;19900;-81
2023/03/13 03:25:08;;;;;;;;;;;12.90;99.90;;;;;;6212688;23;19904;-86
2023/03/13 03:27:35;;;;;;;;;;;12.90;99.90;;;;;;6211622;23;19927;-82
2023/03/13 03:30:01;;;;;;;;;;;12.90;99.90;;;;;;6211658;23;20336;-81
2023/03/13 03:32:26;;;;;;;;;;;12.90;99.90;;;;;;6211561;23;20000;-81
2023/03/13 03:34:51;;;;;;;;;;;12.90;99.90;;;;;;6211810;23;19982;-81
2023/03/13 03:37:17;;;;;;;;;;;12.90;99.90;;;;;;6211485;23;20236;-80
2023/03/13 03:39:43;;;;;;;;;;;12.90;99.90;;;;;;6211557;23;19900;-80
2023/03/13 03:42:10;;;;;;;;;;;12.90;99.90;;;;;;6212694;23;19938;-81
2023/03/13 03:44:35;;;;;;;;;;;13.00;99.90;;;;;;6211585;23;20348;-81
2023/03/13 03:47:01;;;;;;;;;;;12.90;99.90;;;;;;6211221;23;19900;-80
2023/03/13 03:49:26;;;;;;;;;;;12.90;99.90;;;;;;6211182;23;19907;-80
2023/03/13 03:51:52;;;;;;;;;;;13.00;99.90;;;;;;6211137;23;20218;-80
2023/03/13 03:54:18;;;;;;;;;;;13.00;99.90;;;;;;6211242;23;20126;-80
2023/03/13 03:56:43;;;;;;;;;;;13.00;99.90;;;;;;6211430;23;19907;-80
2023/03/13 03:59:09;;;;;;;;;;;13.00;99.90;;;;;;6211985;23;20294;-82
2023/03/13 04:01:34;;;;;;;;;;;13.00;99.90;;;;;;6211349;23;19953;-80
2023/03/13 04:04:00;;;;;;;;;;;12.90;99.90;;;;;;6211213;23;19961;-80
2023/03/13 04:06:25;;;;;;;;;;;13.00;99.90;;;;;;6184585;23;19904;-80
2023/03/13 04:08:50;;;;;;;;;;;12.90;99.90;;;;;;6211154;23;19983;-80
2023/03/13 04:11:16;;;;;;;;;;;12.90;99.90;;;;;;6210773;23;19906;-80
2023/03/13 04:13:41;;;;;;;;;;;12.90;99.90;;;;;;6212207;23;19914;-80
2023/03/13 04:16:07;;;;;;;;;;;13.00;99.90;;;;;;6210772;23;19900;-80
2023/03/13 04:18:33;;;;;;;;;;;12.90;99.90;;;;;;6210816;23;20195;-81
2023/03/13 04:21:02;;;;;;;;;;;13.00;99.90;;;;;;6210792;23;20244;-80
2023/03/13 04:23:28;;;;;;;;;;;13.00;99.90;;;;;;6210939;23;19904;-82
2023/03/13 04:25:53;;;;;;;;;;;13.00;99.90;;;;;;6210931;23;19954;-80
2023/03/13 04:28:19;;;;;;;;;;;13.00;99.90;;;;;;6211125;23;19904;-80
2023/03/13 04:30:44;;;;;;;;;;;13.00;99.90;;;;;;6211115;23;19900;-80
2023/03/13 04:33:10;;;;;;;;;;;13.00;99.90;;;;;;6212064;23;19912;-81
2023/03/13 04:35:35;;;;;;;;;;;13.00;99.90;;;;;;6210940;23;19923;-82
2023/03/13 04:38:01;;;;;;;;;;;12.90;99.90;;;;;;6210516;23;19900;-80
2023/03/13 04:40:27;;;;;;;;;;;13.00;99.90;;;;;;6184062;23;20276;-80
2023/03/13 04:42:52;;;;;;;;;;;13.00;99.90;;;;;;6184491;23;19907;-80
2023/03/13 04:45:18;;;;;;;;;;;13.00;99.90;;;;;;6210563;23;19931;-80
2023/03/13 04:47:45;;;;;;;;;;;12.90;99.90;;;;;;6211911;23;19900;-81
2023/03/13 04:50:10;;;;;;;;;;;12.90;99.90;;;;;;6185078;23;19974;-81
2023/03/13 04:52:36;;;;;;;;;;;13.00;99.90;;;;;;6210488;23;20287;-82
2023/03/13 04:55:01;;;;;;;;;;;12.90;99.90;;;;;;6210726;23;19900;-81
2023/03/13 04:57:27;;;;;;;;;;;12.90;99.90;;;;;;6211355;23;19954;-81
2023/03/13 04:59:52;;;;;;;;;;;12.90;99.90;;;;;;6212972;23;19907;-81
2023/03/13 05:02:18;;;;;;;;;;;12.90;99.90;;;;;;6212911;23;19903;-82
2023/03/13 05:04:43;;;;;;;;;;;12.90;99.90;;;;;;6214141;23;20375;-85
2023/03/13 05:07:09;;;;;;;;;;;12.80;99.90;;;;;;6212930;23;19907;-84
2023/03/13 05:09:34;;;;;;;;;;;12.90;99.90;;;;;;6212601;23;20236;-84
2023/03/13 05:12:00;;;;;;;;;;;12.90;99.90;;;;;;6212945;23;19958;-85
2023/03/13 05:14:25;;;;;;;;;;;12.90;99.90;;;;;;6213007;23;19904;-82
2023/03/13 05:16:51;;;;;;;;;;;12.90;99.90;;;;;;6212842;23;19899;-83
2023/03/13 05:19:16;;;;;;;;;;;12.80;99.90;;;;;;6213813;23;19958;-81
2023/03/13 05:21:42;;;;;;;;;;;12.80;99.90;;;;;;6213232;23;19923;-82
2023/03/13 05:24:07;;;;;;;;;;;12.70;99.90;;;;;;6212705;23;19907;-82
2023/03/13 05:26:33;;;;;;;;;;;12.70;99.90;;;;;;6186243;23;20289;-83
2023/03/13 05:29:00;;;;;;;;;;;12.60;99.90;;;;;;6212828;23;19986;-82
2023/03/13 05:31:25;;;;;;;;;;;12.60;99.90;;;;;;6212653;23;19907;-80
2023/03/13 05:33:51;;;;;;;;;;;12.60;99.90;;;;;;6212776;23;19908;-81
2023/03/13 05:36:17;;;;;;;;;;;12.60;99.90;;;;;;6213652;23;19932;-82
2023/03/13 05:38:44;;;;;;;;;;;12.50;99.90;;;;;;6186377;23;19950;-82
2023/03/13 05:41:09;;;;;;;;;;;12.50;99.90;;;;;;6212920;23;19907;-81
2023/03/13 05:43:35;;;;;;;;;;;12.60;99.90;;;;;;6212106;23;19904;-80
2023/03/13 05:46:00;;;;;;;;;;;12.60;99.90;;;;;;6212161;23;19970;-80
2023/03/13 05:48:26;;;;;;;;;;;12.60;99.90;;;;;;6212332;23;19900;-79
2023/03/13 05:50:51;;;;;;;;;;;12.60;99.90;;;;;;6212255;23;19907;-80
2023/03/13 05:53:17;;;;;;;;;;;12.60;99.90;;;;;;6213243;23;19907;-80
2023/03/13 05:55:42;;;;;;;;;;;12.60;99.90;;;;;;6212395;23;19989;-80
2023/03/13 05:58:08;;;;;;;;;;;12.60;99.90;;;;;;6185686;23;19903;-80
2023/03/13 06:00:34;;;;;;;;;;;12.50;99.90;;;;;;6212353;23;19962;-80
2023/03/13 06:02:59;;;;;;;;;;;12.60;99.90;;;;;;6212478;23;19900;-81
2023/03/13 06:05:25;;;;;;;;;;;12.60;99.90;;;;;;6212287;23;19945;-80
2023/03/13 06:07:51;;;;;;;;;;;12.70;99.90;;;;;;6211876;23;20233;-82
2023/03/13 06:10:17;;;;;;;;;;;12.60;99.90;;;;;;6213528;23;19978;-80
2023/03/13 06:12:42;;;;;;;;;;;12.60;99.90;;;;;;6212207;23;20269;-81
2023/03/13 06:15:08;;;;;;;;;;;12.50;99.90;;;;;;6212387;23;19904;-80
2023/03/13 06:17:34;;;;;;;;;;;12.50;99.90;;;;;;6212249;23;19900;-81
2023/03/13 06:20:00;;;;;;;;;;;12.40;99.90;;;;;;6212352;23;19911;-80
2023/03/13 06:22:25;;;;;;;;;;;12.50;99.90;;;;;;6212204;23;19945;-81
2023/03/13 06:24:51;;;;;;;;;;;12.40;99.90;;;;;;6212644;23;19900;-81
2023/03/13 06:27:16;;;;;;;;;;;12.50;99.90;;;;;;6213746;23;20344;-82
2023/03/13 06:29:42;;;;;;;;;;;12.40;99.90;;;;;;6212322;23;19974;-82
2023/03/13 06:32:07;;;;;;;;;;;12.40;99.90;;;;;;6212060;23;19908;-80
2023/03/13 06:34:33;;;;;;;;;;;12.50;99.90;;;;;;6212055;23;19911;-84
2023/03/13 06:36:59;;;;;;;;;;;12.40;99.90;;;;;;6211860;23;19904;-82
2023/03/13 06:39:24;;;;;;;;;;;12.40;99.90;;;;;;6212376;23;19900;-82
2023/03/13 06:41:50;;;;;;;;;;;12.50;99.90;;;;;;6213194;23;19907;-81
2023/03/13 06:44:15;;;;;;;;;;;12.50;99.90;;;;;;6212186;23;19907;-81
2023/03/13 06:46:41;;;;;;;;;;;12.50;99.90;;;;;;6212027;23;20232;-81
2023/03/13 06:49:07;;;;;;;;;;;12.50;99.90;;;;;;6211884;23;19900;-81
2023/03/13 06:51:32;;;;;;;;;;;12.40;99.90;;;;;;6184925;23;19900;-81
2023/03/13 06:53:58;;;;;;;;;;;12.40;99.90;;;;;;6211948;23;19914;-80
2023/03/13 06:56:23;;;;;;;;;;;12.40;99.90;;;;;;6211949;23;19900;-82
2023/03/13 06:58:49;;;;;;;;;;;12.50;99.90;;;;;;6213040;23;19973;-83
2023/03/13 07:01:15;;;;;;;;;;;12.50;99.90;;;;;;6211910;23;20244;-81
2023/03/13 07:03:41;;;;;;;;;;;12.50;99.90;;;;;;6211853;23;20350;-80
2023/03/13 07:06:07;;;;;;;;;;;12.50;99.90;;;;;;6211802;23;19975;-83
2023/03/13 07:08:33;;;;;;;;;;;12.50;99.90;;;;;;6211967;23;19979;-80
2023/03/13 07:11:03;;;;;;;;;;;12.50;99.90;;;;;;6211862;23;19958;-82
2023/03/13 07:13:29;;;;;;;;;;;12.50;99.90;;;;;;6211751;23;19999;-80
2023/03/13 07:15:58;;;;;;;;;;;12.50;99.90;;;;;;6211662;23;19899;-80
2023/03/13 07:18:24;;;;;;;;;;;12.50;99.90;;;;;;6212423;23;19906;-81
2023/03/13 07:20:53;;;;;;;;;;;12.60;99.90;;;;;;6211887;23;19939;-81
2023/03/13 07:23:20;;;;;;;;;;;;;;;;;;6212913;23;19982;-88
2023/03/13 07:25:52;;;;;;;;;;;12.40;99.90;;;;;;6211734;23;19908;-88
2023/03/13 07:28:18;;;;;;;;;;;12.40;99.90;;;;;;6211349;23;19924;-90
2023/03/13 07:30:43;;;;;;;;;;;12.30;99.90;;;;;;6184541;23;20539;-88
2023/03/13 07:33:09;;;;;;;;;;;12.30;99.90;;;;;;6183215;23;19998;-87
2023/03/13 07:35:34;;;;;;;;;;;12.40;99.90;;;;;;6211482;23;20245;-87
2023/03/13 07:38:00;;;;;;;;;;;12.40;99.90;;;;;;6211539;23;19979;-87
2023/03/13 07:40:25;;;;;;;;;;;12.40;99.90;;;;;;6211441;23;19899;-86
2023/03/13 07:42:51;;;;;;;;;;;12.40;99.90;;;;;;6212404;23;19900;-88
2023/03/13 07:45:16;;;;;;;;;;;12.40;99.90;;;;;;6211315;23;20248;-86
2023/03/13 07:47:42;;;;;;;;;;;12.50;99.90;;;;;;6184685;23;19946;-87
2023/03/13 07:50:07;;;;;;;;;;;12.50;99.90;;;;;;6211438;23;19914;-90
2023/03/13 07:52:33;;;;;;;;;;;12.60;99.90;;;;;;6211075;23;19911;-89
2023/03/13 07:54:58;;;;;;;;;;;12.60;99.90;;;;;;6211439;23;20288;-87
2023/03/13 07:57:24;;;;;;;;;;;12.60;99.90;;;;;;6185678;23;19954;-87
2023/03/13 07:59:49;;;;;;;;;;;12.70;99.90;;;;;;6184620;23;19900;-89
2023/03/13 08:02:15;;;;;;;;;;;12.70;99.90;;;;;;6211785;23;20162;-86
2023/03/13 08:04:41;;;;;;;;;;;12.80;99.90;;;;;;6211225;23;19903;-86
2023/03/13 08:07:07;;;;;;;;;;;12.80;99.90;;;;;;6211444;23;20329;-88
2023/03/13 08:09:33;;;;;;;;;;;12.90;99.90;;;;;;6184756;23;19942;-87
2023/03/13 08:11:58;;;;;;;;;;;12.90;99.90;;;;;;6210976;23;19907;-88
2023/03/13 08:14:24;;;;;;;;;;;12.90;99.90;;;;;;6211818;23;20291;-89
2023/03/13 08:16:49;;;;;;;;;;;12.90;99.90;;;;;;6210833;23;19906;-88
2023/03/13 08:19:15;;;;;;;;;;;13.00;99.90;;;;;;6211030;23;19908;-86
2023/03/13 08:21:40;;;;;;;;;;;12.90;99.90;;;;;;6211504;23;19911;-85
2023/03/13 08:24:07;;;;;;;;;;;13.00;99.90;;;;;;6211482;23;19907;-88
2023/03/13 08:26:33;;;;;;;;;;;13.10;99.90;;;;;;6211296;23;19922;-89
2023/03/13 08:29:00;;;;;;;;;;;13.20;99.90;;;;;;6211286;23;19910;-87
2023/03/13 08:31:27;;;;;;;;;;;13.20;99.90;;;;;;6211978;23;20360;-87
2023/03/13 08:33:52;;;;;;;;;;;13.10;99.90;;;;;;6185912;23;19939;-89
2023/03/13 08:36:20;;;;;;;;;;;13.10;99.90;;;;;;6205157;23;20112;-86
2023/03/13 08:38:46;;;;;;;;;;;13.20;99.90;;;;;;6209473;23;19904;-87
2023/03/13 08:41:16;;;;;;;;;;;13.40;99.90;;;;;;6182010;23;19911;-88
2023/03/13 08:43:41;;;;;;;;;;;13.40;99.90;;;;;;6210388;23;19904;-88
2023/03/13 08:46:07;;;;;;;;;;;13.40;99.90;;;;;;6183898;23;19900;-87
2023/03/13 08:48:32;;;;;;;;;;;13.60;99.90;;;;;;6211100;23;19922;-88
2023/03/13 08:51:06;;;;;;;;;;;13.70;99.90;;;;;;6211486;23;19900;-88
2023/03/13 08:53:32;;;;;;;;;;;13.70;99.90;;;;;;6211294;23;19918;-88
2023/03/13 08:55:57;;;;;;;;;;;13.40;99.90;;;;;;6212445;23;19930;-87
2023/03/13 08:58:24;;;;;;;;;;;13.70;99.90;;;;;;6186221;23;19974;-87
2023/03/13 09:00:50;;;;;;;;;;;13.50;99.90;;;;;;6211699;23;19907;-91
2023/03/13 09:03:16;;;;;;;;;;;13.60;99.90;;;;;;6185950;23;19900;-90
2023/03/13 09:05:42;;;;;;;;;;;13.60;99.90;;;;;;6212381;23;19900;-87
2023/03/13 09:08:08;;;;;;;;;;;13.50;99.90;;;;;;6212216;23;19931;-86
2023/03/13 09:10:34;;;;;;;;;;;13.50;99.90;;;;;;6185712;23;19978;-86
2023/03/13 09:12:59;;;;;;;;;;;13.70;99.90;;;;;;6214338;23;19912;-88
2023/03/13 09:15:25;;;;;;;;;;;13.80;99.90;;;;;;6224285;23;19954;-88
2023/03/13 09:17:50;;;;;;;;;;;13.80;99.90;;;;;;6229505;23;20288;-88
2023/03/13 09:20:17;;;;;;;;;;;13.90;99.90;;;;;;6227432;23;19908;-87
2023/03/13 09:22:43;;;;;;;;;;;13.80;99.90;;;;;;6213754;23;19904;-88
2023/03/13 09:25:09;;;;;;;;;;;13.70;99.90;;;;;;6209124;23;19987;-88
2023/03/13 09:27:34;;;;;;;;;;;13.80;99.90;;;;;;6211207;23;19911;-87
2023/03/13 09:30:00;;;;;;;;;;;13.90;99.90;;;;;;6209501;23;20281;-88
2023/03/13 09:32:25;;;;;;;;;;;13.90;99.90;;;;;;6210743;23;19986;-87
2023/03/13 09:34:51;;;;;;;;;;;14.00;99.90;;;;;;6210275;23;19906;-90
2023/03/13 09:37:16;;;;;;;;;;;14.10;99.90;;;;;;6210691;23;19946;-87
2023/03/13 09:39:42;;;;;;;;;;;14.20;99.90;;;;;;6184060;23;19900;-88
2023/03/13 09:42:15;;;;;;;;;;;14.30;99.90;;;;;;6210616;23;19904;-89
2023/03/13 09:44:49;;;;;;;;;;;14.50;99.90;;;;;;6185365;23;19907;-87
2023/03/13 09:47:37;;;;;;;;;;;14.70;99.90;;;;;;6212616;23;19900;-86
2023/03/13 09:50:11;;;;;;;;;;;14.80;99.90;;;;;;6211728;23;19907;-87
2023/03/13 09:52:39;;;;;;;;;;;15.10;99.90;;;;;;6211871;23;20329;-88
2023/03/13 09:55:26;;;;;;;;;;;15.10;99.90;;;;;;6213348;23;19900;-87
2023/03/13 09:57:54;;;;;;;;;;;15.00;99.90;;;;;;6212269;23;19939;-89
2023/03/13 10:00:28;;;;;;;;;;;15.00;99.90;;;;;;6185733;23;20367;-85
2023/03/13 10:03:02;;;;;;;;;;;15.00;99.90;;;;;;6211883;23;19900;-86
2023/03/13 10:05:28;;;;;;;;;;;15.00;99.90;;;;;;6213270;23;19899;-84
2023/03/13 10:08:14;;;;;;;;;;;15.00;99.90;;;;;;6212334;23;19900;-83
2023/03/13 10:10:42;;;;;;;;;;;14.90;99.90;;;;;;6211524;23;19966;-89
2023/03/13 10:13:26;;;;;;;;;;;14.90;99.90;;;;;;6212279;23;20277;-85
2023/03/13 10:15:56;;;;;;;;;;;14.90;99.90;;;;;;6212507;23;20308;-83
2023/03/13 10:18:23;;;;;;;;;;;15.00;99.90;;;;;;6212513;23;19900;-86
2023/03/13 10:20:50;;;;;;;;;;;15.20;99.90;;;;;;6212186;23;19935;-84
2023/03/13 10:23:24;;;;;;;;;;;15.40;99.90;;;;;;6211679;23;19900;-86
2023/03/13 10:25:49;;;;;;;;;;;15.50;99.90;;;;;;6211842;23;20248;-85
2023/03/13 10:28:18;;;;;;;;;;;15.40;99.90;;;;;;6212293;23;19906;-87
2023/03/13 10:30:50;;;;;;;;;;;15.40;99.90;;;;;;6211533;23;20392;-89
2023/03/13 10:33:35;;;;;;;;;;;15.30;99.90;;;;;;6212063;23;19983;-89
2023/03/13 10:36:04;;;;;;;;;;;15.00;99.90;;;;;;6186456;23;19995;-87
2023/03/13 10:38:32;;;;;;;;;;;15.00;99.90;;;;;;6213175;23;20347;-86
2023/03/13 10:40:58;;;;;;;;;;;14.90;99.90;;;;;;6213362;23;19911;-88
2023/03/13 10:43:24;;;;;;;;;;;14.80;99.90;;;;;;6212340;23;19899;-88
2023/03/13 10:45:50;;;;;;;;;;;14.60;99.90;;;;;;6211735;23;20244;-87
2023/03/13 10:48:23;;;;;;;;;;;14.30;99.90;;;;;;6211753;23;19975;-86
2023/03/13 10:50:50;;;;;;;;;;;14.20;99.90;;;;;;6212496;23;20367;-88
2023/03/13 10:53:23;;;;;;;;;;;14.20;99.90;;;;;;6211149;23;19907;-88
2023/03/13 10:55:51;;;;;;;;;;;14.40;99.90;;;;;;6184222;23;19904;-87
2023/03/13 10:58:29;;;;;;;;;;;14.30;99.90;;;;;;6211998;23;20272;-88
2023/03/13 11:01:08;;;;;;;;;;;14.50;99.90;;;;;;6211806;23;19931;-86
2023/03/13 11:03:34;;;;;;;;;;;14.80;99.90;;;;;;6211486;23;19900;-88
2023/03/13 11:06:00;;;;;;;;;;;15.20;99.90;;;;;;6212707;23;20244;-88
2023/03/13 11:08:27;;;;;;;;;;;15.60;99.90;;;;;;6211943;23;19995;-87
2023/03/13 11:10:54;;;;;;;;;;;15.70;99.90;;;;;;6211149;23;19899;-89
2023/03/13 11:13:27;;;;;;;;;;;15.70;99.90;;;;;;6185643;23;19911;-88
2023/03/13 11:16:01;;;;;;;;;;;15.70;99.90;;;;;;6212271;23;19907;-88
2023/03/13 11:18:47;;;;;;;;;;;15.50;99.90;;;;;;6211793;23;19971;-88
2023/03/13 11:21:18;;;;;;;;;;;15.20;99.90;;;;;;6136580;23;20305;-88
2023/03/13 11:23:51;;;;;;;;;;;15.30;99.90;;;;;;6211900;23;20018;-88
2023/03/13 11:26:32;;;;;;;;;;;15.50;99.90;;;;;;6211253;23;19923;-88
2023/03/13 11:29:04;;;;;;;;;;;15.30;99.90;;;;;;6212272;23;19962;-88
2023/03/13 11:31:34;;;;;;;;;;;15.30;99.90;;;;;;6185237;23;20200;-88
2023/03/13 11:34:03;;;;;;;;;;;15.30;99.90;;;;;;6213597;23;19908;-87
2023/03/13 11:36:31;;;;;;;;;;;15.30;99.90;;;;;;6211521;23;19900;-88
2023/03/13 11:38:59;;;;;;;;;;;15.30;99.90;;;;;;6211780;23;19899;-87
2023/03/13 11:41:30;;;;;;;;;;;15.20;99.90;;;;;;6211345;23;20113;-90
2023/03/13 11:44:02;;;;;;;;;;;15.30;99.90;;;;;;6211477;23;19904;-88
2023/03/13 11:46:37;;;;;;;;;;;15.40;99.90;;;;;;6186121;23;19900;-89
2023/03/13 11:49:26;;;;;;;;;;;15.50;99.90;;;;;;6211392;23;19904;-88
2023/03/13 11:52:08;;;;;;;;;;;15.50;99.90;;;;;;6213651;23;19899;-88
2023/03/13 11:54:37;;;;;;;;;;;15.50;99.90;;;;;;6189731;23;19903;-93
2023/03/13 11:57:11;;;;;;;;;;;15.50;99.90;;;;;;6188615;23;19935;-87
2023/03/13 11:59:42;;;;;;;;;;;15.50;99.90;;;;;;6214010;23;19908;-86
2023/03/13 12:02:24;;;;;;;;;;;15.50;99.90;;;;;;6213234;23;19907;-91
2023/03/13 12:04:58;;;;;;;;;;;16.00;99.90;;;;;;6215883;23;19903;-86
2023/03/13 12:07:30;;;;;;;;;;;15.40;99.90;;;;;;6218829;23;19977;-86
2023/03/13 12:09:55;;;;;;;;;;;15.40;99.90;;;;;;6226799;23;19900;-86
2023/03/13 12:12:30;;;;;;;;;;;15.30;99.90;;;;;;6199298;23;19904;-88
2023/03/13 12:14:57;;;;;;;;;;;15.40;99.90;;;;;;6186236;23;20241;-86
2023/03/13 12:17:26;;;;;;;;;;;15.30;99.90;;;;;;6211435;23;20317;-86
2023/03/13 12:19:55;;;;;;;;;;;15.40;99.90;;;;;;6211357;23;19998;-88
2023/03/13 12:22:40;;;;;;;;;;;15.60;99.90;;;;;;6211831;23;19904;-93
2023/03/13 12:25:11;;;;;;;;;;;15.80;99.90;;;;;;6211538;23;19901;-87
2023/03/13 12:27:40;;;;;;;;;;;15.90;99.90;;;;;;6211739;23;19962;-90
2023/03/13 12:30:17;;;;;;;;;;;16.00;99.90;;;;;;6213356;23;19907;-89
2023/03/13 12:33:03;;;;;;;;;;;15.90;99.90;;;;;;6216482;23;19962;-88
2023/03/13 12:35:32;;;;;;;;;;;16.00;99.90;;;;;;6156077;23;19954;-90
2023/03/13 12:37:57;;;;;;;;;;;16.00;99.90;;;;;;6190737;23;20354;-90
2023/03/13 12:40:58;;;;;;;;;;;16.10;99.90;;;;;;6214683;23;20221;-89
2023/03/13 12:43:31;;;;;;;;;;;16.10;99.90;;;;;;6070712;23;19933;-90
2023/03/13 12:45:57;;;;;;;;;;;16.20;99.90;;;;;;6195487;23;19986;-91
2023/03/13 12:48:31;;;;;;;;;;;16.10;99.90;;;;;;6183054;23;19927;-90
2023/03/13 12:51:15;;;;;;;;;;;16.00;99.90;;;;;;6211460;23;19899;-88
2023/03/13 12:53:44;;;;;;;;;;;15.80;99.90;;;;;;6186039;23;19907;-90
2023/03/13 12:56:17;;;;;;;;;;;16.00;99.90;;;;;;6211190;23;20317;-91
2023/03/13 12:58:44;;;;;;;;;;;16.10;99.90;;;;;;6211545;23;19899;-90
2023/03/13 13:01:14;;;;;;;;;;;16.00;99.90;;;;;;6185259;23;19904;-89
2023/03/13 13:03:51;;;;;;;;;;;15.90;99.90;;;;;;6211899;23;19911;-89
2023/03/13 13:06:17;;;;;;;;;;;16.10;99.90;;;;;;6211588;23;19931;-88
2023/03/13 13:08:45;;;;;;;;;;;16.30;99.90;;;;;;6184883;23;19907;-88
2023/03/13 13:11:29;;;;;;;;;;;16.10;99.90;;;;;;6211604;23;19904;-90
2023/03/13 13:13:55;;;;;;;;;;;15.90;99.90;;;;;;6185452;23;19907;-90
2023/03/13 13:16:22;;;;;;;;;;;16.40;99.90;;;;;;6213132;23;19907;-89
2023/03/13 13:18:47;;;;;;;;;;;16.10;99.90;;;;;;6213042;23;19982;-90
2023/03/13 13:21:21;;;;;;;;;;;16.10;99.90;;;;;;6213745;23;19954;-91
2023/03/13 13:23:48;;;;;;;;;;;16.10;99.90;;;;;;6213373;23;19900;-92
2023/03/13 13:26:40;;;;;;;;;;;15.70;99.90;;;;;;6213022;23;19900;-91
2023/03/13 13:29:12;;;;;;;;;;;15.70;99.90;;;;;;6180105;23;20007;-88
2023/03/13 13:31:47;;;;;;;;;;;15.40;99.90;;;;;;6213897;23;19907;-89
2023/03/13 13:34:30;;;;;;;;;;;15.40;99.90;;;;;;6212903;23;19915;-89
2023/03/13 13:37:11;;;;;;;;;;;15.60;99.90;;;;;;6186161;23;19931;-91
2023/03/13 13:39:48;;;;;;;;;;;15.60;99.90;;;;;;6189147;23;20010;-92
2023/03/13 13:42:44;;;;;;;;;;;15.70;99.90;;;;;;6210176;23;20360;-88
2023/03/13 13:45:09;;;;;;;;;;;15.50;99.90;;;;;;6155603;23;20348;-89
2023/03/13 13:47:35;;;;;;;;;;;15.60;99.90;;;;;;6180104;23;19907;-89
2023/03/13 13:50:00;;;;;;;;;;;15.70;99.90;;;;;;6211890;23;20279;-91
2023/03/13 13:52:29;;;;;;;;;;;15.80;99.90;;;;;;6210774;23;19903;-90
2023/03/13 13:54:55;;;;;;;;;;;15.40;99.90;;;;;;6183597;23;19970;-88
2023/03/13 13:57:22;;;;;;;;;;;15.30;99.90;;;;;;6207812;23;20411;-87
2023/03/13 13:59:50;;;;;;;;;;;15.20;99.90;;;;;;6181774;23;19931;-88
2023/03/13 14:02:29;;;;;;;;;;;14.90;99.90;;;;;;6184424;23;19978;-88
2023/03/13 14:05:00;;;;;;;;;;;15.00;99.90;;;;;;6209659;23;19900;-88
2023/03/13 14:07:44;;;;;;;;;;;14.90;99.90;;;;;;6209097;23;19900;-89
2023/03/13 14:10:29;;;;;;;;;;;15.00;99.90;;;;;;6210429;23;19904;-88
2023/03/13 14:12:56;;;;;;;;;;;15.10;99.90;;;;;;6182036;23;19919;-87
2023/03/13 14:15:23;;;;;;;;;;;14.70;99.90;;;;;;6180887;23;19917;-92
2023/03/13 14:17:50;;;;;;;;;;;15.20;99.90;;;;;;6207051;23;19974;-91
2023/03/13 14:20:18;;;;;;;;;;;15.20;99.90;;;;;;6205756;23;19908;-90
2023/03/13 14:22:47;;;;;;;;;;;15.30;99.90;;;;;;6208308;23;19939;-88
2023/03/13 14:25:14;;;;;;;;;;;15.40;99.90;;;;;;6205058;23;19900;-88